sensor_id;sensor_type;location;lat;lon;timestamp;P1;durP1;ratioP1;P2;durP2;ratioP2
52534;SDS011;38443;53.164;5.802;2023-05-07T00:02:20;22.67;;;14.35;;
52534;SDS011;38443;53.164;5.802;2023-05-07T00:04:45;21.77;;;14.38;;
52534;SDS011;38443;53.164;5.802;2023-05-07T00:07:11;22.25;;;14.32;;
52534;SDS011;38443;53.164;5.802;2023-05-07T00:09:36;22.88;;;14.68;;
52534;SDS011;38443;53.164;5.802;2023-05-07T00:12:01;21.98;;;14.93;;
52534;SDS011;38443;53.164;5.802;2023-05-07T00:14:27;23.67;;;14.68;;
52534;SDS011;38443;53.164;5.802;2023-05-07T00:16:52;31.73;;;15.20;;
52534;SDS011;38443;53.164;5.802;2023-05-07T00:19:18;24.33;;;15.13;;
52534;SDS011;38443;53.164;5.802;2023-05-07T00:21:43;23.73;;;15.13;;
52534;SDS011;38443;53.164;5.802;2023-05-07T00:24:08;22.90;;;15.18;;
52534;SDS011;38443;53.164;5.802;2023-05-07T00:26:33;23.85;;;15.57;;
52534;SDS011;38443;53.164;5.802;2023-05-07T00:28:59;25.73;;;15.45;;
52534;SDS011;38443;53.164;5.802;2023-05-07T00:31:24;25.08;;;15.73;;
52534;SDS011;38443;53.164;5.802;2023-05-07T00:33:49;23.95;;;14.35;;
52534;SDS011;38443;53.164;5.802;2023-05-07T00:36:15;22.67;;;14.45;;
52534;SDS011;38443;53.164;5.802;2023-05-07T00:38:40;24.30;;;15.27;;
52534;SDS011;38443;53.164;5.802;2023-05-07T00:41:05;22.70;;;15.57;;
52534;SDS011;38443;53.164;5.802;2023-05-07T00:43:31;25.38;;;15.18;;
52534;SDS011;38443;53.164;5.802;2023-05-07T00:45:57;25.00;;;15.38;;
52534;SDS011;38443;53.164;5.802;2023-05-07T00:48:22;24.13;;;14.70;;
52534;SDS011;38443;53.164;5.802;2023-05-07T00:50:49;23.10;;;14.88;;
52534;SDS011;38443;53.164;5.802;2023-05-07T00:53:14;22.73;;;14.70;;
52534;SDS011;38443;53.164;5.802;2023-05-07T00:55:40;22.95;;;14.52;;
52534;SDS011;38443;53.164;5.802;2023-05-07T00:58:05;23.95;;;15.05;;
52534;SDS011;38443;53.164;5.802;2023-05-07T01:00:31;25.25;;;14.80;;
52534;SDS011;38443;53.164;5.802;2023-05-07T01:02:57;28.65;;;15.02;;
52534;SDS011;38443;53.164;5.802;2023-05-07T01:05:23;21.52;;;15.13;;
52534;SDS011;38443;53.164;5.802;2023-05-07T01:07:50;25.02;;;14.65;;
52534;SDS011;38443;53.164;5.802;2023-05-07T01:10:17;26.75;;;15.43;;
52534;SDS011;38443;53.164;5.802;2023-05-07T01:12:42;24.55;;;14.10;;
52534;SDS011;38443;53.164;5.802;2023-05-07T01:15:10;24.85;;;15.15;;
52534;SDS011;38443;53.164;5.802;2023-05-07T01:17:36;26.88;;;14.82;;
52534;SDS011;38443;53.164;5.802;2023-05-07T01:20:05;23.30;;;15.38;;
52534;SDS011;38443;53.164;5.802;2023-05-07T01:22:35;23.00;;;14.55;;
52534;SDS011;38443;53.164;5.802;2023-05-07T01:25:02;22.40;;;15.07;;
52534;SDS011;38443;53.164;5.802;2023-05-07T01:27:28;23.38;;;14.73;;
52534;SDS011;38443;53.164;5.802;2023-05-07T01:29:54;23.08;;;13.52;;
52534;SDS011;38443;53.164;5.802;2023-05-07T01:32:21;23.52;;;13.88;;
52534;SDS011;38443;53.164;5.802;2023-05-07T01:35:03;25.30;;;15.07;;
52534;SDS011;38443;53.164;5.802;2023-05-07T01:37:32;26.20;;;15.88;;
52534;SDS011;38443;53.164;5.802;2023-05-07T01:39:57;26.02;;;14.55;;
52534;SDS011;38443;53.164;5.802;2023-05-07T01:42:23;24.40;;;14.50;;
52534;SDS011;38443;53.164;5.802;2023-05-07T01:44:49;21.15;;;14.38;;
52534;SDS011;38443;53.164;5.802;2023-05-07T01:47:14;20.77;;;13.48;;
52534;SDS011;38443;53.164;5.802;2023-05-07T01:49:41;25.98;;;15.45;;
52534;SDS011;38443;53.164;5.802;2023-05-07T01:52:07;25.67;;;15.00;;
52534;SDS011;38443;53.164;5.802;2023-05-07T01:54:35;30.20;;;16.60;;
52534;SDS011;38443;53.164;5.802;2023-05-07T01:57:00;27.90;;;15.90;;
52534;SDS011;38443;53.164;5.802;2023-05-07T01:59:26;26.90;;;15.65;;
52534;SDS011;38443;53.164;5.802;2023-05-07T02:01:51;26.63;;;15.52;;
52534;SDS011;38443;53.164;5.802;2023-05-07T02:04:17;26.02;;;16.05;;
52534;SDS011;38443;53.164;5.802;2023-05-07T02:06:42;28.05;;;15.98;;
52534;SDS011;38443;53.164;5.802;2023-05-07T02:09:07;24.70;;;15.07;;
52534;SDS011;38443;53.164;5.802;2023-05-07T02:11:33;29.13;;;16.33;;
52534;SDS011;38443;53.164;5.802;2023-05-07T02:13:59;28.42;;;17.02;;
52534;SDS011;38443;53.164;5.802;2023-05-07T02:16:24;26.67;;;16.65;;
52534;SDS011;38443;53.164;5.802;2023-05-07T02:18:49;31.60;;;18.17;;
52534;SDS011;38443;53.164;5.802;2023-05-07T02:21:15;30.73;;;19.25;;
52534;SDS011;38443;53.164;5.802;2023-05-07T02:23:40;31.92;;;17.27;;
52534;SDS011;38443;53.164;5.802;2023-05-07T02:26:05;30.75;;;18.55;;
52534;SDS011;38443;53.164;5.802;2023-05-07T02:28:31;27.05;;;16.95;;
52534;SDS011;38443;53.164;5.802;2023-05-07T02:30:58;31.92;;;19.55;;
52534;SDS011;38443;53.164;5.802;2023-05-07T02:33:24;32.83;;;18.55;;
52534;SDS011;38443;53.164;5.802;2023-05-07T02:35:50;31.77;;;19.38;;
52534;SDS011;38443;53.164;5.802;2023-05-07T02:38:16;28.67;;;19.67;;
52534;SDS011;38443;53.164;5.802;2023-05-07T02:40:42;32.92;;;18.70;;
52534;SDS011;38443;53.164;5.802;2023-05-07T02:43:07;36.67;;;20.45;;
52534;SDS011;38443;53.164;5.802;2023-05-07T02:45:34;30.73;;;17.92;;
52534;SDS011;38443;53.164;5.802;2023-05-07T02:48:01;30.63;;;18.95;;
52534;SDS011;38443;53.164;5.802;2023-05-07T02:50:26;32.08;;;18.85;;
52534;SDS011;38443;53.164;5.802;2023-05-07T02:52:52;33.80;;;19.10;;
52534;SDS011;38443;53.164;5.802;2023-05-07T02:55:17;33.22;;;19.00;;
52534;SDS011;38443;53.164;5.802;2023-05-07T02:57:42;29.60;;;18.02;;
52534;SDS011;38443;53.164;5.802;2023-05-07T03:00:11;31.77;;;18.98;;
52534;SDS011;38443;53.164;5.802;2023-05-07T03:02:37;30.90;;;17.83;;
52534;SDS011;38443;53.164;5.802;2023-05-07T03:05:02;30.83;;;19.27;;
52534;SDS011;38443;53.164;5.802;2023-05-07T03:07:28;33.40;;;19.65;;
52534;SDS011;38443;53.164;5.802;2023-05-07T03:09:53;32.45;;;17.35;;
52534;SDS011;38443;53.164;5.802;2023-05-07T03:12:19;34.20;;;19.15;;
52534;SDS011;38443;53.164;5.802;2023-05-07T03:14:45;34.95;;;19.15;;
52534;SDS011;38443;53.164;5.802;2023-05-07T03:17:10;34.70;;;19.70;;
52534;SDS011;38443;53.164;5.802;2023-05-07T03:19:36;35.97;;;19.00;;
52534;SDS011;38443;53.164;5.802;2023-05-07T03:22:01;32.08;;;19.92;;
52534;SDS011;38443;53.164;5.802;2023-05-07T03:24:26;30.80;;;18.98;;
52534;SDS011;38443;53.164;5.802;2023-05-07T03:26:51;33.05;;;20.98;;
52534;SDS011;38443;53.164;5.802;2023-05-07T03:29:17;35.88;;;20.52;;
52534;SDS011;38443;53.164;5.802;2023-05-07T03:31:42;34.78;;;19.90;;
52534;SDS011;38443;53.164;5.802;2023-05-07T03:34:07;33.33;;;20.52;;
52534;SDS011;38443;53.164;5.802;2023-05-07T03:36:33;35.05;;;19.85;;
52534;SDS011;38443;53.164;5.802;2023-05-07T03:38:58;35.92;;;20.38;;
52534;SDS011;38443;53.164;5.802;2023-05-07T03:41:23;31.02;;;19.73;;
52534;SDS011;38443;53.164;5.802;2023-05-07T03:43:49;32.00;;;19.75;;
52534;SDS011;38443;53.164;5.802;2023-05-07T03:46:14;37.88;;;21.90;;
52534;SDS011;38443;53.164;5.802;2023-05-07T03:48:39;39.65;;;21.17;;
52534;SDS011;38443;53.164;5.802;2023-05-07T03:51:05;34.28;;;20.73;;
52534;SDS011;38443;53.164;5.802;2023-05-07T03:53:30;41.35;;;21.55;;
52534;SDS011;38443;53.164;5.802;2023-05-07T03:55:55;33.70;;;19.88;;
52534;SDS011;38443;53.164;5.802;2023-05-07T03:58:21;34.22;;;20.80;;
52534;SDS011;38443;53.164;5.802;2023-05-07T04:00:46;34.65;;;20.83;;
52534;SDS011;38443;53.164;5.802;2023-05-07T04:03:11;36.85;;;21.88;;
52534;SDS011;38443;53.164;5.802;2023-05-07T04:05:36;35.70;;;21.17;;
52534;SDS011;38443;53.164;5.802;2023-05-07T04:08:02;36.67;;;22.50;;
52534;SDS011;38443;53.164;5.802;2023-05-07T04:10:28;36.53;;;21.20;;
52534;SDS011;38443;53.164;5.802;2023-05-07T04:12:54;35.85;;;20.00;;
52534;SDS011;38443;53.164;5.802;2023-05-07T04:15:19;35.38;;;20.27;;
52534;SDS011;38443;53.164;5.802;2023-05-07T04:17:45;36.30;;;20.30;;
52534;SDS011;38443;53.164;5.802;2023-05-07T04:20:14;35.08;;;21.42;;
52534;SDS011;38443;53.164;5.802;2023-05-07T04:22:41;36.50;;;20.58;;
52534;SDS011;38443;53.164;5.802;2023-05-07T04:25:07;34.83;;;20.58;;
52534;SDS011;38443;53.164;5.802;2023-05-07T04:27:34;35.67;;;20.05;;
52534;SDS011;38443;53.164;5.802;2023-05-07T04:29:59;40.25;;;22.27;;
52534;SDS011;38443;53.164;5.802;2023-05-07T04:32:25;38.33;;;20.70;;
52534;SDS011;38443;53.164;5.802;2023-05-07T04:34:51;36.75;;;21.98;;
52534;SDS011;38443;53.164;5.802;2023-05-07T04:37:16;35.28;;;20.92;;
52534;SDS011;38443;53.164;5.802;2023-05-07T04:39:42;38.17;;;21.60;;
52534;SDS011;38443;53.164;5.802;2023-05-07T04:42:07;38.63;;;22.90;;
52534;SDS011;38443;53.164;5.802;2023-05-07T04:44:34;39.47;;;23.02;;
52534;SDS011;38443;53.164;5.802;2023-05-07T04:47:00;39.35;;;22.10;;
52534;SDS011;38443;53.164;5.802;2023-05-07T04:49:25;38.38;;;21.70;;
52534;SDS011;38443;53.164;5.802;2023-05-07T04:51:50;40.47;;;22.60;;
52534;SDS011;38443;53.164;5.802;2023-05-07T04:54:16;35.42;;;21.50;;
52534;SDS011;38443;53.164;5.802;2023-05-07T04:56:41;37.65;;;22.20;;
52534;SDS011;38443;53.164;5.802;2023-05-07T04:59:06;40.30;;;22.23;;
52534;SDS011;38443;53.164;5.802;2023-05-07T05:01:32;37.05;;;21.23;;
52534;SDS011;38443;53.164;5.802;2023-05-07T05:03:57;40.28;;;22.25;;
52534;SDS011;38443;53.164;5.802;2023-05-07T05:06:22;39.40;;;22.65;;
52534;SDS011;38443;53.164;5.802;2023-05-07T05:08:48;38.95;;;22.33;;
52534;SDS011;38443;53.164;5.802;2023-05-07T05:11:13;44.53;;;23.77;;
52534;SDS011;38443;53.164;5.802;2023-05-07T05:13:39;45.08;;;24.92;;
52534;SDS011;38443;53.164;5.802;2023-05-07T05:16:05;44.05;;;24.80;;
52534;SDS011;38443;53.164;5.802;2023-05-07T05:18:31;44.22;;;23.38;;
52534;SDS011;38443;53.164;5.802;2023-05-07T05:20:56;40.38;;;22.65;;
52534;SDS011;38443;53.164;5.802;2023-05-07T05:23:21;42.40;;;23.98;;
52534;SDS011;38443;53.164;5.802;2023-05-07T05:25:46;41.45;;;24.08;;
52534;SDS011;38443;53.164;5.802;2023-05-07T05:28:12;44.92;;;23.95;;
52534;SDS011;38443;53.164;5.802;2023-05-07T05:30:37;43.95;;;24.45;;
52534;SDS011;38443;53.164;5.802;2023-05-07T05:33:03;48.88;;;26.60;;
52534;SDS011;38443;53.164;5.802;2023-05-07T05:35:29;47.55;;;23.35;;
52534;SDS011;38443;53.164;5.802;2023-05-07T05:37:54;42.22;;;23.95;;
52534;SDS011;38443;53.164;5.802;2023-05-07T05:40:20;45.20;;;24.48;;
52534;SDS011;38443;53.164;5.802;2023-05-07T05:42:45;40.35;;;22.83;;
52534;SDS011;38443;53.164;5.802;2023-05-07T05:45:10;46.08;;;24.08;;
52534;SDS011;38443;53.164;5.802;2023-05-07T05:47:36;48.47;;;24.55;;
52534;SDS011;38443;53.164;5.802;2023-05-07T05:50:02;45.17;;;24.45;;
52534;SDS011;38443;53.164;5.802;2023-05-07T05:52:28;49.63;;;24.42;;
52534;SDS011;38443;53.164;5.802;2023-05-07T05:54:53;47.40;;;23.75;;
52534;SDS011;38443;53.164;5.802;2023-05-07T05:57:19;42.60;;;25.17;;
52534;SDS011;38443;53.164;5.802;2023-05-07T05:59:44;42.22;;;23.27;;
52534;SDS011;38443;53.164;5.802;2023-05-07T06:02:10;44.50;;;23.23;;
52534;SDS011;38443;53.164;5.802;2023-05-07T06:04:35;42.85;;;24.98;;
52534;SDS011;38443;53.164;5.802;2023-05-07T06:07:00;46.42;;;24.58;;
52534;SDS011;38443;53.164;5.802;2023-05-07T06:09:26;41.95;;;23.65;;
52534;SDS011;38443;53.164;5.802;2023-05-07T06:11:51;42.88;;;25.75;;
52534;SDS011;38443;53.164;5.802;2023-05-07T06:14:16;42.75;;;23.73;;
52534;SDS011;38443;53.164;5.802;2023-05-07T06:16:41;44.90;;;24.00;;
52534;SDS011;38443;53.164;5.802;2023-05-07T06:19:07;41.47;;;22.55;;
52534;SDS011;38443;53.164;5.802;2023-05-07T06:21:32;46.42;;;22.90;;
52534;SDS011;38443;53.164;5.802;2023-05-07T06:23:57;41.67;;;23.67;;
52534;SDS011;38443;53.164;5.802;2023-05-07T06:26:23;40.40;;;22.52;;
52534;SDS011;38443;53.164;5.802;2023-05-07T06:28:48;42.83;;;23.23;;
52534;SDS011;38443;53.164;5.802;2023-05-07T06:31:17;35.42;;;21.52;;
52534;SDS011;38443;53.164;5.802;2023-05-07T06:33:47;39.83;;;22.60;;
52534;SDS011;38443;53.164;5.802;2023-05-07T06:36:13;39.13;;;22.23;;
52534;SDS011;38443;53.164;5.802;2023-05-07T06:38:38;39.42;;;22.92;;
52534;SDS011;38443;53.164;5.802;2023-05-07T06:41:05;38.78;;;22.25;;
52534;SDS011;38443;53.164;5.802;2023-05-07T06:43:31;37.10;;;21.85;;
52534;SDS011;38443;53.164;5.802;2023-05-07T06:45:56;41.03;;;20.85;;
52534;SDS011;38443;53.164;5.802;2023-05-07T06:48:21;39.15;;;22.25;;
52534;SDS011;38443;53.164;5.802;2023-05-07T06:50:46;28.88;;;18.65;;
52534;SDS011;38443;53.164;5.802;2023-05-07T06:53:12;35.83;;;20.95;;
52534;SDS011;38443;53.164;5.802;2023-05-07T06:55:37;40.63;;;21.20;;
52534;SDS011;38443;53.164;5.802;2023-05-07T06:58:06;36.20;;;20.67;;
52534;SDS011;38443;53.164;5.802;2023-05-07T07:00:32;38.17;;;21.00;;
52534;SDS011;38443;53.164;5.802;2023-05-07T07:02:57;37.28;;;20.52;;
52534;SDS011;38443;53.164;5.802;2023-05-07T07:05:23;38.28;;;20.92;;
52534;SDS011;38443;53.164;5.802;2023-05-07T07:07:49;32.65;;;19.70;;
52534;SDS011;38443;53.164;5.802;2023-05-07T07:10:18;36.20;;;21.10;;
52534;SDS011;38443;53.164;5.802;2023-05-07T07:12:44;31.80;;;19.10;;
52534;SDS011;38443;53.164;5.802;2023-05-07T07:15:10;33.28;;;20.23;;
52534;SDS011;38443;53.164;5.802;2023-05-07T07:17:36;32.60;;;19.30;;
52534;SDS011;38443;53.164;5.802;2023-05-07T07:20:01;31.65;;;19.23;;
52534;SDS011;38443;53.164;5.802;2023-05-07T07:22:27;31.65;;;19.45;;
52534;SDS011;38443;53.164;5.802;2023-05-07T07:24:53;31.02;;;18.15;;
52534;SDS011;38443;53.164;5.802;2023-05-07T07:27:18;31.65;;;18.65;;
52534;SDS011;38443;53.164;5.802;2023-05-07T07:29:43;31.00;;;18.30;;
52534;SDS011;38443;53.164;5.802;2023-05-07T07:32:09;29.42;;;18.33;;
52534;SDS011;38443;53.164;5.802;2023-05-07T07:34:34;30.42;;;18.08;;
52534;SDS011;38443;53.164;5.802;2023-05-07T07:37:00;28.73;;;17.73;;
52534;SDS011;38443;53.164;5.802;2023-05-07T07:39:30;31.45;;;18.33;;
52534;SDS011;38443;53.164;5.802;2023-05-07T07:41:55;33.15;;;18.23;;
52534;SDS011;38443;53.164;5.802;2023-05-07T07:44:21;27.83;;;17.67;;
52534;SDS011;38443;53.164;5.802;2023-05-07T07:46:46;28.85;;;18.40;;
52534;SDS011;38443;53.164;5.802;2023-05-07T07:49:11;30.92;;;17.77;;
52534;SDS011;38443;53.164;5.802;2023-05-07T07:51:37;30.40;;;19.60;;
52534;SDS011;38443;53.164;5.802;2023-05-07T07:54:02;31.33;;;18.58;;
52534;SDS011;38443;53.164;5.802;2023-05-07T07:56:28;25.85;;;16.35;;
52534;SDS011;38443;53.164;5.802;2023-05-07T07:58:53;28.50;;;17.42;;
52534;SDS011;38443;53.164;5.802;2023-05-07T08:01:18;28.85;;;16.30;;
52534;SDS011;38443;53.164;5.802;2023-05-07T08:03:44;29.25;;;17.90;;
52534;SDS011;38443;53.164;5.802;2023-05-07T08:06:09;30.30;;;17.40;;
52534;SDS011;38443;53.164;5.802;2023-05-07T08:08:34;26.17;;;16.58;;
52534;SDS011;38443;53.164;5.802;2023-05-07T08:11:00;31.45;;;18.15;;
52534;SDS011;38443;53.164;5.802;2023-05-07T08:13:25;27.92;;;18.08;;
52534;SDS011;38443;53.164;5.802;2023-05-07T08:15:51;29.40;;;18.45;;
52534;SDS011;38443;53.164;5.802;2023-05-07T08:18:16;27.25;;;16.85;;
52534;SDS011;38443;53.164;5.802;2023-05-07T08:20:41;26.48;;;17.13;;
52534;SDS011;38443;53.164;5.802;2023-05-07T08:23:07;33.00;;;18.77;;
52534;SDS011;38443;53.164;5.802;2023-05-07T08:25:33;29.08;;;17.77;;
52534;SDS011;38443;53.164;5.802;2023-05-07T08:27:59;30.48;;;16.98;;
52534;SDS011;38443;53.164;5.802;2023-05-07T08:30:25;27.48;;;18.05;;
52534;SDS011;38443;53.164;5.802;2023-05-07T08:32:50;30.25;;;17.65;;
52534;SDS011;38443;53.164;5.802;2023-05-07T08:35:15;29.65;;;17.85;;
52534;SDS011;38443;53.164;5.802;2023-05-07T08:37:41;28.73;;;16.95;;
52534;SDS011;38443;53.164;5.802;2023-05-07T08:40:06;27.73;;;17.20;;
52534;SDS011;38443;53.164;5.802;2023-05-07T08:42:33;27.67;;;17.20;;
52534;SDS011;38443;53.164;5.802;2023-05-07T08:45:01;27.80;;;16.90;;
52534;SDS011;38443;53.164;5.802;2023-05-07T08:47:38;27.33;;;16.17;;
52534;SDS011;38443;53.164;5.802;2023-05-07T08:50:07;29.63;;;18.05;;
52534;SDS011;38443;53.164;5.802;2023-05-07T08:52:33;28.35;;;17.63;;
52534;SDS011;38443;53.164;5.802;2023-05-07T08:54:59;26.92;;;16.75;;
52534;SDS011;38443;53.164;5.802;2023-05-07T08:57:25;26.50;;;17.58;;
52534;SDS011;38443;53.164;5.802;2023-05-07T08:59:50;27.30;;;16.95;;
52534;SDS011;38443;53.164;5.802;2023-05-07T09:02:15;26.88;;;18.15;;
52534;SDS011;38443;53.164;5.802;2023-05-07T09:04:41;28.85;;;18.52;;
52534;SDS011;38443;53.164;5.802;2023-05-07T09:07:07;27.83;;;17.60;;
52534;SDS011;38443;53.164;5.802;2023-05-07T09:09:32;29.08;;;16.85;;
52534;SDS011;38443;53.164;5.802;2023-05-07T09:11:58;27.13;;;18.02;;
52534;SDS011;38443;53.164;5.802;2023-05-07T09:14:24;27.42;;;18.35;;
52534;SDS011;38443;53.164;5.802;2023-05-07T09:16:51;27.92;;;17.40;;
52534;SDS011;38443;53.164;5.802;2023-05-07T09:19:21;29.70;;;18.60;;
52534;SDS011;38443;53.164;5.802;2023-05-07T09:21:48;27.98;;;17.33;;
52534;SDS011;38443;53.164;5.802;2023-05-07T09:24:15;29.60;;;17.73;;
52534;SDS011;38443;53.164;5.802;2023-05-07T09:26:41;28.63;;;17.23;;
52534;SDS011;38443;53.164;5.802;2023-05-07T09:29:07;27.33;;;17.17;;
52534;SDS011;38443;53.164;5.802;2023-05-07T09:31:38;29.38;;;17.27;;
52534;SDS011;38443;53.164;5.802;2023-05-07T09:34:04;27.98;;;18.60;;
52534;SDS011;38443;53.164;5.802;2023-05-07T09:36:31;26.75;;;17.02;;
52534;SDS011;38443;53.164;5.802;2023-05-07T09:38:58;26.88;;;16.42;;
52534;SDS011;38443;53.164;5.802;2023-05-07T09:41:24;25.30;;;17.23;;
52534;SDS011;38443;53.164;5.802;2023-05-07T09:43:54;27.58;;;17.67;;
52534;SDS011;38443;53.164;5.802;2023-05-07T09:46:20;29.95;;;18.33;;
52534;SDS011;38443;53.164;5.802;2023-05-07T09:48:52;27.85;;;17.17;;
52534;SDS011;38443;53.164;5.802;2023-05-07T09:51:21;27.38;;;17.23;;
52534;SDS011;38443;53.164;5.802;2023-05-07T09:53:53;29.75;;;17.67;;
52534;SDS011;38443;53.164;5.802;2023-05-07T09:56:19;26.40;;;16.25;;
52534;SDS011;38443;53.164;5.802;2023-05-07T09:58:45;26.48;;;16.60;;
52534;SDS011;38443;53.164;5.802;2023-05-07T10:01:11;30.35;;;16.02;;
52534;SDS011;38443;53.164;5.802;2023-05-07T10:03:38;25.52;;;17.35;;
52534;SDS011;38443;53.164;5.802;2023-05-07T10:06:06;26.80;;;17.15;;
52534;SDS011;38443;53.164;5.802;2023-05-07T10:08:33;26.10;;;15.98;;
52534;SDS011;38443;53.164;5.802;2023-05-07T10:11:00;25.48;;;16.23;;
52534;SDS011;38443;53.164;5.802;2023-05-07T10:13:26;36.78;;;17.15;;
52534;SDS011;38443;53.164;5.802;2023-05-07T10:15:52;28.35;;;16.33;;
52534;SDS011;38443;53.164;5.802;2023-05-07T10:18:18;28.17;;;15.82;;
52534;SDS011;38443;53.164;5.802;2023-05-07T10:20:47;25.63;;;16.40;;
52534;SDS011;38443;53.164;5.802;2023-05-07T10:23:15;23.85;;;16.00;;
52534;SDS011;38443;53.164;5.802;2023-05-07T10:25:44;26.98;;;16.35;;
52534;SDS011;38443;53.164;5.802;2023-05-07T10:28:10;26.02;;;16.23;;
52534;SDS011;38443;53.164;5.802;2023-05-07T10:33:11;25.85;;;16.60;;
52534;SDS011;38443;53.164;5.802;2023-05-07T10:35:41;29.35;;;18.13;;
52534;SDS011;38443;53.164;5.802;2023-05-07T10:38:09;27.23;;;17.45;;
52534;SDS011;38443;53.164;5.802;2023-05-07T10:40:34;26.20;;;16.05;;
52534;SDS011;38443;53.164;5.802;2023-05-07T10:43:01;25.75;;;17.13;;
52534;SDS011;38443;53.164;5.802;2023-05-07T10:45:29;27.98;;;16.65;;
52534;SDS011;38443;53.164;5.802;2023-05-07T10:50:36;26.17;;;15.90;;
52534;SDS011;38443;53.164;5.802;2023-05-07T10:55:47;26.58;;;16.40;;
52534;SDS011;38443;53.164;5.802;2023-05-07T11:00:47;24.98;;;15.63;;
52534;SDS011;38443;53.164;5.802;2023-05-07T11:03:16;25.95;;;16.02;;
52534;SDS011;38443;53.164;5.802;2023-05-07T11:05:41;28.02;;;17.48;;
52534;SDS011;38443;53.164;5.802;2023-05-07T11:08:07;27.27;;;17.35;;
52534;SDS011;38443;53.164;5.802;2023-05-07T11:13:14;23.27;;;14.90;;
52534;SDS011;38443;53.164;5.802;2023-05-07T11:15:41;24.88;;;15.80;;
52534;SDS011;38443;53.164;5.802;2023-05-07T11:18:09;26.63;;;15.80;;
52534;SDS011;38443;53.164;5.802;2023-05-07T11:23:54;23.45;;;16.10;;
52534;SDS011;38443;53.164;5.802;2023-05-07T11:25:58;27.65;;;16.77;;
52534;SDS011;38443;53.164;5.802;2023-05-07T11:28:27;25.77;;;15.65;;
52534;SDS011;38443;53.164;5.802;2023-05-07T11:30:53;27.75;;;16.77;;
52534;SDS011;38443;53.164;5.802;2023-05-07T11:33:19;27.65;;;16.95;;
52534;SDS011;38443;53.164;5.802;2023-05-07T11:35:44;27.17;;;17.65;;
52534;SDS011;38443;53.164;5.802;2023-05-07T11:38:10;27.73;;;16.98;;
52534;SDS011;38443;53.164;5.802;2023-05-07T11:40:48;31.40;;;17.65;;
52534;SDS011;38443;53.164;5.802;2023-05-07T11:43:16;25.33;;;16.33;;
52534;SDS011;38443;53.164;5.802;2023-05-07T11:45:42;27.58;;;17.40;;
52534;SDS011;38443;53.164;5.802;2023-05-07T11:48:07;25.58;;;15.95;;
52534;SDS011;38443;53.164;5.802;2023-05-07T11:50:32;26.05;;;17.38;;
52534;SDS011;38443;53.164;5.802;2023-05-07T11:52:58;26.20;;;16.88;;
52534;SDS011;38443;53.164;5.802;2023-05-07T11:55:23;25.17;;;16.20;;
52534;SDS011;38443;53.164;5.802;2023-05-07T11:57:49;24.75;;;17.05;;
52534;SDS011;38443;53.164;5.802;2023-05-07T12:00:15;23.50;;;14.90;;
52534;SDS011;38443;53.164;5.802;2023-05-07T12:02:41;24.58;;;15.77;;
52534;SDS011;38443;53.164;5.802;2023-05-07T12:05:07;25.05;;;16.48;;
52534;SDS011;38443;53.164;5.802;2023-05-07T12:07:33;26.15;;;16.02;;
52534;SDS011;38443;53.164;5.802;2023-05-07T12:09:59;24.20;;;16.05;;
52534;SDS011;38443;53.164;5.802;2023-05-07T12:12:29;25.50;;;16.52;;
52534;SDS011;38443;53.164;5.802;2023-05-07T12:14:54;24.50;;;16.00;;
52534;SDS011;38443;53.164;5.802;2023-05-07T12:17:19;26.88;;;15.85;;
52534;SDS011;38443;53.164;5.802;2023-05-07T12:19:45;24.83;;;16.63;;
52534;SDS011;38443;53.164;5.802;2023-05-07T12:22:11;24.23;;;15.90;;
52534;SDS011;38443;53.164;5.802;2023-05-07T12:24:44;26.92;;;16.77;;
52534;SDS011;38443;53.164;5.802;2023-05-07T12:27:11;24.15;;;15.52;;
52534;SDS011;38443;53.164;5.802;2023-05-07T12:29:36;25.10;;;17.02;;
52534;SDS011;38443;53.164;5.802;2023-05-07T12:32:05;23.15;;;15.77;;
52534;SDS011;38443;53.164;5.802;2023-05-07T12:34:31;23.25;;;14.82;;
52534;SDS011;38443;53.164;5.802;2023-05-07T12:36:56;21.58;;;15.07;;
52534;SDS011;38443;53.164;5.802;2023-05-07T12:39:22;22.95;;;14.05;;
52534;SDS011;38443;53.164;5.802;2023-05-07T12:41:54;21.02;;;14.65;;
52534;SDS011;38443;53.164;5.802;2023-05-07T12:44:30;23.70;;;15.93;;
52534;SDS011;38443;53.164;5.802;2023-05-07T12:46:57;23.70;;;15.38;;
52534;SDS011;38443;53.164;5.802;2023-05-07T12:49:23;20.83;;;14.45;;
52534;SDS011;38443;53.164;5.802;2023-05-07T12:51:49;20.08;;;14.80;;
52534;SDS011;38443;53.164;5.802;2023-05-07T12:54:31;22.75;;;15.63;;
52534;SDS011;38443;53.164;5.802;2023-05-07T12:57:01;23.50;;;15.10;;
52534;SDS011;38443;53.164;5.802;2023-05-07T12:59:35;20.20;;;14.63;;
52534;SDS011;38443;53.164;5.802;2023-05-07T13:02:01;25.17;;;15.95;;
52534;SDS011;38443;53.164;5.802;2023-05-07T13:04:27;22.17;;;15.75;;
52534;SDS011;38443;53.164;5.802;2023-05-07T13:06:52;21.42;;;14.95;;
52534;SDS011;38443;53.164;5.802;2023-05-07T13:09:17;20.85;;;14.55;;
52534;SDS011;38443;53.164;5.802;2023-05-07T13:11:42;22.63;;;14.85;;
52534;SDS011;38443;53.164;5.802;2023-05-07T13:14:08;22.95;;;14.75;;
52534;SDS011;38443;53.164;5.802;2023-05-07T13:16:33;21.92;;;15.05;;
52534;SDS011;38443;53.164;5.802;2023-05-07T13:18:58;22.00;;;14.65;;
52534;SDS011;38443;53.164;5.802;2023-05-07T13:21:24;22.45;;;14.95;;
52534;SDS011;38443;53.164;5.802;2023-05-07T13:23:49;19.50;;;13.95;;
52534;SDS011;38443;53.164;5.802;2023-05-07T13:26:14;20.80;;;14.15;;
52534;SDS011;38443;53.164;5.802;2023-05-07T13:28:40;21.45;;;14.88;;
52534;SDS011;38443;53.164;5.802;2023-05-07T13:31:05;20.77;;;14.52;;
52534;SDS011;38443;53.164;5.802;2023-05-07T13:33:30;20.48;;;15.65;;
52534;SDS011;38443;53.164;5.802;2023-05-07T13:35:56;19.45;;;14.13;;
52534;SDS011;38443;53.164;5.802;2023-05-07T13:38:22;23.13;;;14.75;;
52534;SDS011;38443;53.164;5.802;2023-05-07T13:40:47;20.90;;;14.43;;
52534;SDS011;38443;53.164;5.802;2023-05-07T13:43:12;19.63;;;15.00;;
52534;SDS011;38443;53.164;5.802;2023-05-07T13:45:38;17.92;;;12.98;;
52534;SDS011;38443;53.164;5.802;2023-05-07T13:48:03;19.75;;;14.13;;
52534;SDS011;38443;53.164;5.802;2023-05-07T13:50:29;22.48;;;14.68;;
52534;SDS011;38443;53.164;5.802;2023-05-07T13:52:54;19.95;;;13.63;;
52534;SDS011;38443;53.164;5.802;2023-05-07T13:55:20;19.98;;;14.15;;
52534;SDS011;38443;53.164;5.802;2023-05-07T13:57:47;22.83;;;14.00;;
52534;SDS011;38443;53.164;5.802;2023-05-07T14:00:19;17.73;;;13.15;;
52534;SDS011;38443;53.164;5.802;2023-05-07T14:02:45;17.92;;;12.82;;
52534;SDS011;38443;53.164;5.802;2023-05-07T14:05:10;17.95;;;13.10;;
52534;SDS011;38443;53.164;5.802;2023-05-07T14:07:35;20.35;;;14.15;;
52534;SDS011;38443;53.164;5.802;2023-05-07T14:10:01;21.58;;;14.32;;
52534;SDS011;38443;53.164;5.802;2023-05-07T14:12:27;17.58;;;12.55;;
52534;SDS011;38443;53.164;5.802;2023-05-07T14:14:52;18.35;;;11.98;;
52534;SDS011;38443;53.164;5.802;2023-05-07T14:17:18;17.85;;;11.65;;
52534;SDS011;38443;53.164;5.802;2023-05-07T14:19:44;18.08;;;12.13;;
52534;SDS011;38443;53.164;5.802;2023-05-07T14:22:09;15.60;;;11.77;;
52534;SDS011;38443;53.164;5.802;2023-05-07T14:24:35;15.98;;;11.43;;
52534;SDS011;38443;53.164;5.802;2023-05-07T14:27:00;16.20;;;11.65;;
52534;SDS011;38443;53.164;5.802;2023-05-07T14:29:25;21.60;;;13.43;;
52534;SDS011;38443;53.164;5.802;2023-05-07T14:31:51;16.33;;;12.30;;